createdAt,value
2022-07-28T00:00:59.654Z,94.32
2022-07-28T00:06:01.806Z,94.39
2022-07-28T00:11:03.952Z,93.91
2022-07-28T00:16:07.521Z,95.46
2022-07-28T00:21:09.882Z,97.78
2022-07-28T00:26:12.700Z,96.69
2022-07-28T00:31:15.621Z,96.63
2022-07-28T00:36:18.388Z,96.94
2022-07-28T00:41:29.290Z,94.83
2022-07-28T00:46:31.538Z,94.28
2022-07-28T00:51:34.438Z,96.76
2022-07-28T00:56:36.782Z,97.13
2022-07-28T01:01:39.004Z,96.44
2022-07-28T01:06:55.833Z,94.73
2022-07-28T01:12:30.688Z,95.44
2022-07-28T01:17:54.955Z,95.89
2022-07-28T01:23:08.381Z,96.56
2022-07-28T01:28:54.057Z,96.96
2022-07-28T01:34:00.718Z,96.64
2022-07-28T01:39:03.288Z,96.03
2022-07-28T01:44:15.484Z,96.51
2022-07-28T01:49:21.661Z,95.66
2022-07-28T01:54:28.649Z,95.95
2022-07-28T01:59:31.891Z,95.66
2022-07-28T02:04:37.961Z,96.16
2022-07-28T02:09:43.385Z,94.60
2022-07-28T02:14:49.165Z,94.34
2022-07-28T02:19:53.008Z,94.98
2022-07-28T02:24:56.371Z,98.38
2022-07-28T02:30:15.475Z,95.87
2022-07-28T02:35:32.020Z,98.88
2022-07-28T02:40:36.540Z,99.39
2022-07-28T02:45:45.038Z,99.51
2022-07-28T02:50:48.483Z,98.55
2022-07-28T02:55:51.555Z,100.00
2022-07-28T03:00:55.366Z,100.00
2022-07-28T03:05:57.805Z,100.00
2022-07-28T03:11:10.299Z,100.00
2022-07-28T03:16:14.268Z,100.00
2022-07-28T03:21:16.493Z,100.00
2022-07-28T03:26:31.254Z,100.00
2022-07-28T03:31:36.054Z,100.00
2022-07-28T03:36:45.848Z,100.00
2022-07-28T03:41:48.940Z,100.00
2022-07-28T03:46:51.084Z,100.00
2022-07-28T03:51:53.169Z,100.00
2022-07-28T03:56:55.546Z,99.60
2022-07-28T04:01:57.772Z,99.45
2022-07-28T04:07:00.419Z,99.80
2022-07-28T04:12:02.498Z,96.70
2022-07-28T04:17:05.031Z,97.22
2022-07-28T04:22:07.153Z,96.86
2022-07-28T04:27:09.283Z,96.90
2022-07-28T04:32:11.669Z,97.54
2022-07-28T04:37:16.693Z,97.57
2022-07-28T04:42:19.090Z,95.40
2022-07-28T04:47:21.251Z,93.72
2022-07-28T04:52:24.369Z,92.42
2022-07-28T04:57:30.305Z,92.43
2022-07-28T05:02:32.948Z,90.58
2022-07-28T05:07:36.359Z,87.86
2022-07-28T05:12:38.805Z,82.83
2022-07-28T05:17:41.045Z,79.77
2022-07-28T05:22:51.266Z,75.98
2022-07-28T05:27:54.654Z,72.50
2022-07-28T05:33:00.271Z,70.49
2022-07-28T05:38:03.690Z,68.84
2022-07-28T05:43:08.581Z,64.42
2022-07-28T05:48:11.040Z,65.46
2022-07-28T05:53:13.586Z,60.78
2022-07-28T05:58:22.447Z,56.09
2022-07-28T06:03:24.794Z,46.90
2022-07-28T06:08:27.210Z,42.56
2022-07-28T06:13:29.944Z,40.01
2022-07-28T06:18:33.090Z,39.44
2022-07-28T06:23:35.318Z,37.98
2022-07-28T06:28:37.465Z,37.60
2022-07-28T06:33:39.862Z,34.04
2022-07-28T06:38:41.976Z,29.88
2022-07-28T06:43:44.373Z,27.21
2022-07-28T06:48:47.213Z,26.40
2022-07-28T06:53:49.656Z,26.08
2022-07-28T06:58:51.859Z,25.99
2022-07-28T07:03:54.139Z,23.23
2022-07-28T07:08:56.493Z,25.03
2022-07-28T07:13:58.614Z,24.91
2022-07-28T07:19:00.786Z,27.07
2022-07-28T07:24:12.100Z,26.32
2022-07-28T07:29:14.871Z,27.55
2022-07-28T07:34:17.585Z,29.40
2022-07-28T07:39:20.095Z,29.61
2022-07-28T07:44:22.199Z,30.15
2022-07-28T07:49:24.555Z,29.55
2022-07-28T07:54:45.704Z,29.50
2022-07-28T07:59:47.792Z,28.70
2022-07-28T08:04:50.433Z,28.99
2022-07-28T08:09:52.755Z,27.90
2022-07-28T08:14:56.326Z,29.04
2022-07-28T08:19:58.656Z,29.09
2022-07-28T08:25:01.483Z,28.87
2022-07-28T08:30:04.841Z,29.04
2022-07-28T08:35:31.535Z,28.29
2022-07-28T08:40:32.736Z,28.50
2022-07-28T08:45:37.338Z,27.76
2022-07-28T08:50:42.521Z,26.86
2022-07-28T08:55:45.224Z,27.47
2022-07-28T09:00:47.769Z,28.60
2022-07-28T09:05:50.551Z,28.12
2022-07-28T09:10:53.335Z,27.80
2022-07-28T09:15:55.512Z,29.13
2022-07-28T09:20:57.807Z,29.39
2022-07-28T09:26:11.842Z,28.20
2022-07-28T09:31:16.547Z,28.80
2022-07-28T09:36:19.144Z,27.87
2022-07-28T09:41:24.194Z,28.23
2022-07-28T09:46:29.737Z,27.55
2022-07-28T09:51:34.177Z,27.99
2022-07-28T09:56:38.143Z,27.56
2022-07-28T10:02:01.846Z,27.50
2022-07-28T10:07:10.649Z,27.28
2022-07-28T10:12:16.930Z,27.36
2022-07-28T10:17:34.793Z,26.64
2022-07-28T10:22:43.309Z,26.78
2022-07-28T10:27:48.942Z,26.75
2022-07-28T10:32:54.889Z,25.89
2022-07-28T10:38:04.386Z,26.27
2022-07-28T10:43:07.942Z,26.56
2022-07-28T10:48:10.732Z,25.59
2022-07-28T10:53:23.127Z,27.53
2022-07-28T10:58:43.837Z,27.71
2022-07-28T11:03:48.407Z,28.13
2022-07-28T11:08:52.732Z,26.86
2022-07-28T11:14:15.203Z,27.99
2022-07-28T11:19:40.197Z,28.63
2022-07-28T11:24:57.963Z,28.69
2022-07-28T11:30:00.674Z,31.21
2022-07-28T11:35:08.770Z,32.72
2022-07-28T11:40:30.569Z,33.25
2022-07-28T11:45:39.313Z,33.63
2022-07-28T11:50:43.982Z,34.01
2022-07-28T11:55:56.133Z,32.54
2022-07-28T12:01:19.493Z,29.15
2022-07-28T12:06:28.791Z,27.04
2022-07-28T12:11:39.183Z,27.26
2022-07-28T12:16:43.547Z,28.61
2022-07-28T12:21:49.212Z,29.17
2022-07-28T12:26:51.696Z,31.00
2022-07-28T12:31:56.578Z,34.26
2022-07-28T12:37:04.092Z,33.98
2022-07-28T12:42:08.261Z,34.42
2022-07-28T12:47:12.872Z,33.93
2022-07-28T12:52:15.218Z,34.03
2022-07-28T12:57:17.573Z,33.82
2022-07-28T13:02:36.183Z,34.91
2022-07-28T13:07:38.490Z,34.45
2022-07-28T13:12:40.660Z,34.82
2022-07-28T13:17:56.399Z,35.59
2022-07-28T13:22:59.622Z,36.81
2022-07-28T13:28:01.866Z,38.28
2022-07-28T13:33:04.316Z,38.84
2022-07-28T13:38:06.725Z,41.15
2022-07-28T13:43:11.334Z,47.84
2022-07-28T13:48:13.579Z,62.40
2022-07-28T13:53:16.950Z,87.56
2022-07-28T13:58:19.534Z,100.00
2022-07-28T14:03:25.844Z,100.00
2022-07-28T14:08:28.341Z,100.00
2022-07-28T14:13:31.588Z,100.00
2022-07-28T14:18:40.473Z,100.00
2022-07-28T14:23:42.781Z,100.00
2022-07-28T14:28:44.871Z,100.00
2022-07-28T14:33:52.241Z,100.00
2022-07-28T14:38:57.100Z,100.00
2022-07-28T14:43:59.339Z,100.00
2022-07-28T14:49:01.519Z,100.00
2022-07-28T14:54:04.132Z,100.00
2022-07-28T14:59:06.529Z,100.00
2022-07-28T15:04:10.369Z,100.00
2022-07-28T16:08:12.609Z,100.00
2022-07-28T16:13:18.313Z,100.00
2022-07-28T16:18:32.211Z,100.00
2022-07-28T16:23:35.385Z,100.00
2022-07-28T16:28:37.633Z,100.00
2022-07-28T16:33:39.877Z,100.00
2022-07-28T16:38:42.007Z,100.00
2022-07-28T16:43:44.876Z,100.00
2022-07-28T16:48:47.197Z,100.00
2022-07-28T16:53:50.102Z,100.00
2022-07-28T16:58:52.398Z,100.00
2022-07-28T17:03:54.591Z,100.00
2022-07-28T17:08:57.170Z,100.00
2022-07-28T17:13:59.469Z,100.00
2022-07-28T17:19:01.749Z,100.00
2022-07-28T17:24:04.712Z,100.00
2022-07-28T17:29:07.238Z,100.00
2022-07-28T17:34:10.126Z,100.00
2022-07-28T17:39:13.279Z,100.00
2022-07-28T17:44:16.024Z,100.00
2022-07-28T17:49:18.781Z,100.00
2022-07-28T17:54:25.186Z,100.00
2022-07-28T17:59:36.003Z,100.00
2022-07-28T18:04:49.734Z,100.00
2022-07-28T18:09:52.093Z,100.00
2022-07-28T18:14:54.992Z,100.00
2022-07-28T18:20:00.394Z,100.00
2022-07-28T18:25:06.933Z,100.00
2022-07-28T18:30:10.179Z,100.00
2022-07-28T18:35:12.794Z,100.00
2022-07-28T18:40:16.630Z,100.00
2022-07-28T18:45:19.566Z,100.00
2022-07-28T19:06:08.579Z,100.00
2022-07-28T19:11:17.374Z,100.00
2022-07-28T19:16:21.707Z,100.00
2022-07-28T19:21:24.592Z,100.00
2022-07-28T19:26:27.099Z,100.00
2022-07-28T19:31:30.336Z,100.00
2022-07-28T19:36:32.484Z,100.00
2022-07-28T19:41:34.611Z,100.00
2022-07-28T19:46:36.854Z,100.00
2022-07-28T19:51:41.849Z,100.00
2022-07-28T19:56:43.919Z,100.00
2022-07-28T20:01:46.913Z,100.00
2022-07-28T20:06:55.641Z,100.00
2022-07-28T20:11:58.098Z,100.00
2022-07-28T20:17:00.428Z,100.00
2022-07-28T20:22:03.008Z,100.00
2022-07-28T20:27:06.649Z,100.00
2022-07-28T20:32:08.875Z,100.00
2022-07-28T20:37:27.847Z,100.00
2022-07-28T20:42:33.288Z,100.00
2022-07-28T20:47:35.552Z,100.00
2022-07-28T20:52:37.795Z,100.00
2022-07-28T20:57:39.899Z,100.00
2022-07-28T21:02:41.996Z,100.00
2022-07-28T21:08:04.898Z,100.00
2022-07-28T21:13:06.822Z,100.00
2022-07-28T21:18:09.718Z,100.00
2022-07-28T21:23:12.666Z,100.00
2022-07-28T21:28:33.692Z,100.00
2022-07-28T21:33:35.899Z,100.00
2022-07-28T21:38:38.409Z,100.00
2022-07-28T21:43:40.587Z,100.00
2022-07-28T21:48:42.901Z,100.00
2022-07-28T21:53:46.272Z,100.00
2022-07-28T21:58:48.829Z,100.00
2022-07-28T22:03:51.236Z,100.00
2022-07-28T22:08:56.322Z,100.00
2022-07-28T22:13:58.560Z,100.00
2022-07-28T22:19:02.002Z,100.00
2022-07-28T22:24:04.528Z,100.00
2022-07-28T22:29:06.595Z,100.00
2022-07-28T22:34:08.688Z,100.00
2022-07-28T22:39:10.946Z,100.00
2022-07-28T22:44:13.654Z,100.00
2022-07-28T22:49:16.702Z,100.00
2022-07-28T22:54:19.090Z,100.00
2022-07-28T22:59:21.330Z,100.00
2022-07-28T23:04:23.721Z,100.00
2022-07-28T23:09:29.531Z,100.00
2022-07-28T23:14:31.844Z,100.00
2022-07-28T23:19:34.196Z,100.00
2022-07-28T23:24:36.481Z,100.00
2022-07-28T23:29:38.666Z,100.00
2022-07-28T23:34:41.603Z,100.00
2022-07-28T23:39:43.891Z,100.00
2022-07-28T23:44:46.102Z,100.00
2022-07-28T23:49:48.214Z,100.00
2022-07-28T23:54:50.243Z,100.00
2022-07-28T23:59:53.386Z,100.00
